sensor_id;sensor_type;location;lat;lon;timestamp;temperature;humidity
81311;DHT22;70779;52.506;5.492;2024-03-02T00:00:04;11.40;56.90
81311;DHT22;70779;52.506;5.492;2024-03-02T00:02:44;11.40;57.00
81311;DHT22;70779;52.506;5.492;2024-03-02T00:05:15;11.40;57.20
81311;DHT22;70779;52.506;5.492;2024-03-02T00:07:43;11.50;56.80
81311;DHT22;70779;52.506;5.492;2024-03-02T00:10:11;11.50;56.80
81311;DHT22;70779;52.506;5.492;2024-03-02T00:12:40;11.60;56.90
81311;DHT22;70779;52.506;5.492;2024-03-02T00:17:56;11.70;56.40
81311;DHT22;70779;52.506;5.492;2024-03-02T00:20:23;11.80;56.30
81311;DHT22;70779;52.506;5.492;2024-03-02T00:22:50;11.80;56.20
81311;DHT22;70779;52.506;5.492;2024-03-02T00:25:16;11.80;56.20
81311;DHT22;70779;52.506;5.492;2024-03-02T00:27:47;11.90;56.20
81311;DHT22;70779;52.506;5.492;2024-03-02T00:33:08;11.90;56.20
81311;DHT22;70779;52.506;5.492;2024-03-02T00:35:34;11.90;56.00
81311;DHT22;70779;52.506;5.492;2024-03-02T00:38:04;11.90;56.20
81311;DHT22;70779;52.506;5.492;2024-03-02T00:40:32;11.90;56.20
81311;DHT22;70779;52.506;5.492;2024-03-02T00:42:58;11.90;56.10
81311;DHT22;70779;52.506;5.492;2024-03-02T00:45:25;11.90;56.30
81311;DHT22;70779;52.506;5.492;2024-03-02T00:47:52;11.90;56.30
81311;DHT22;70779;52.506;5.492;2024-03-02T00:50:19;11.90;56.30
81311;DHT22;70779;52.506;5.492;2024-03-02T00:52:46;12.00;56.30
81311;DHT22;70779;52.506;5.492;2024-03-02T00:55:14;11.90;56.40
81311;DHT22;70779;52.506;5.492;2024-03-02T00:57:40;11.90;56.50
81311;DHT22;70779;52.506;5.492;2024-03-02T01:00:07;11.90;56.70
81311;DHT22;70779;52.506;5.492;2024-03-02T01:02:36;11.90;56.90
81311;DHT22;70779;52.506;5.492;2024-03-02T01:05:02;11.90;57.00
81311;DHT22;70779;52.506;5.492;2024-03-02T01:07:28;11.90;57.10
81311;DHT22;70779;52.506;5.492;2024-03-02T01:09:54;11.90;57.20
81311;DHT22;70779;52.506;5.492;2024-03-02T01:12:20;11.90;57.30
81311;DHT22;70779;52.506;5.492;2024-03-02T01:14:46;11.90;57.60
81311;DHT22;70779;52.506;5.492;2024-03-02T01:17:12;11.90;57.80
81311;DHT22;70779;52.506;5.492;2024-03-02T01:19:41;11.90;58.50
81311;DHT22;70779;52.506;5.492;2024-03-02T01:22:07;11.70;58.90
81311;DHT22;70779;52.506;5.492;2024-03-02T01:24:34;11.70;59.40
81311;DHT22;70779;52.506;5.492;2024-03-02T01:27:00;11.70;60.00
81311;DHT22;70779;52.506;5.492;2024-03-02T01:29:26;11.60;60.30
81311;DHT22;70779;52.506;5.492;2024-03-02T01:31:52;11.50;60.50
81311;DHT22;70779;52.506;5.492;2024-03-02T01:34:19;11.50;60.80
81311;DHT22;70779;52.506;5.492;2024-03-02T01:36:46;11.40;61.10
81311;DHT22;70779;52.506;5.492;2024-03-02T01:39:12;11.30;61.50
81311;DHT22;70779;52.506;5.492;2024-03-02T01:41:38;11.30;61.50
81311;DHT22;70779;52.506;5.492;2024-03-02T01:44:04;11.20;61.60
81311;DHT22;70779;52.506;5.492;2024-03-02T01:46:30;11.10;61.80
81311;DHT22;70779;52.506;5.492;2024-03-02T01:48:56;11.10;61.90
81311;DHT22;70779;52.506;5.492;2024-03-02T01:51:22;11.10;62.00
81311;DHT22;70779;52.506;5.492;2024-03-02T01:53:48;11.10;62.00
81311;DHT22;70779;52.506;5.492;2024-03-02T01:56:14;11.10;62.00
81311;DHT22;70779;52.506;5.492;2024-03-02T01:58:40;11.10;62.00
81311;DHT22;70779;52.506;5.492;2024-03-02T02:01:07;11.10;61.90
81311;DHT22;70779;52.506;5.492;2024-03-02T02:03:33;11.10;61.90
81311;DHT22;70779;52.506;5.492;2024-03-02T02:05:59;11.00;61.90
81311;DHT22;70779;52.506;5.492;2024-03-02T02:08:25;11.00;62.10
81311;DHT22;70779;52.506;5.492;2024-03-02T02:10:51;10.90;62.20
81311;DHT22;70779;52.506;5.492;2024-03-02T02:13:18;10.90;62.30
81311;DHT22;70779;52.506;5.492;2024-03-02T02:15:44;10.90;62.30
81311;DHT22;70779;52.506;5.492;2024-03-02T02:18:10;10.80;62.50
81311;DHT22;70779;52.506;5.492;2024-03-02T02:20:36;10.80;62.50
81311;DHT22;70779;52.506;5.492;2024-03-02T02:23:03;10.80;62.50
81311;DHT22;70779;52.506;5.492;2024-03-02T02:25:31;10.80;62.60
81311;DHT22;70779;52.506;5.492;2024-03-02T02:27:57;10.70;62.70
81311;DHT22;70779;52.506;5.492;2024-03-02T02:30:25;10.70;62.70
81311;DHT22;70779;52.506;5.492;2024-03-02T02:32:52;10.70;62.80
81311;DHT22;70779;52.506;5.492;2024-03-02T02:35:18;10.70;62.90
81311;DHT22;70779;52.506;5.492;2024-03-02T02:37:45;10.60;63.00
81311;DHT22;70779;52.506;5.492;2024-03-02T02:40:12;10.60;63.10
81311;DHT22;70779;52.506;5.492;2024-03-02T02:42:39;10.60;63.20
81311;DHT22;70779;52.506;5.492;2024-03-02T02:45:06;10.60;63.30
81311;DHT22;70779;52.506;5.492;2024-03-02T02:47:32;10.50;63.50
81311;DHT22;70779;52.506;5.492;2024-03-02T02:50:06;10.50;63.60
81311;DHT22;70779;52.506;5.492;2024-03-02T02:52:34;10.50;63.70
81311;DHT22;70779;52.506;5.492;2024-03-02T02:55:04;10.50;63.90
81311;DHT22;70779;52.506;5.492;2024-03-02T02:57:33;10.40;64.00
81311;DHT22;70779;52.506;5.492;2024-03-02T03:00:08;10.40;64.20
81311;DHT22;70779;52.506;5.492;2024-03-02T03:02:42;10.30;64.30
81311;DHT22;70779;52.506;5.492;2024-03-02T03:05:09;10.30;64.40
81311;DHT22;70779;52.506;5.492;2024-03-02T03:07:36;10.20;64.50
81311;DHT22;70779;52.506;5.492;2024-03-02T03:10:03;10.20;64.70
81311;DHT22;70779;52.506;5.492;2024-03-02T03:12:33;10.20;64.80
81311;DHT22;70779;52.506;5.492;2024-03-02T03:14:59;10.20;65.00
81311;DHT22;70779;52.506;5.492;2024-03-02T03:17:26;10.20;64.90
81311;DHT22;70779;52.506;5.492;2024-03-02T03:19:53;10.20;65.10
81311;DHT22;70779;52.506;5.492;2024-03-02T03:22:19;10.20;65.10
81311;DHT22;70779;52.506;5.492;2024-03-02T03:24:45;10.10;65.30
81311;DHT22;70779;52.506;5.492;2024-03-02T03:27:11;10.10;65.50
81311;DHT22;70779;52.506;5.492;2024-03-02T03:29:38;10.10;65.60
81311;DHT22;70779;52.506;5.492;2024-03-02T03:32:04;10.00;65.80
81311;DHT22;70779;52.506;5.492;2024-03-02T03:34:33;10.00;65.80
81311;DHT22;70779;52.506;5.492;2024-03-02T03:36:59;10.00;65.80
81311;DHT22;70779;52.506;5.492;2024-03-02T03:39:25;10.00;66.00
81311;DHT22;70779;52.506;5.492;2024-03-02T03:41:51;10.00;65.90
81311;DHT22;70779;52.506;5.492;2024-03-02T03:44:17;9.90;66.00
81311;DHT22;70779;52.506;5.492;2024-03-02T03:46:43;9.80;66.10
81311;DHT22;70779;52.506;5.492;2024-03-02T03:49:09;9.80;66.10
81311;DHT22;70779;52.506;5.492;2024-03-02T03:51:35;9.70;66.30
81311;DHT22;70779;52.506;5.492;2024-03-02T03:54:02;9.70;66.40
81311;DHT22;70779;52.506;5.492;2024-03-02T03:56:28;9.70;66.40
81311;DHT22;70779;52.506;5.492;2024-03-02T03:58:54;9.70;66.40
81311;DHT22;70779;52.506;5.492;2024-03-02T04:01:20;9.70;66.40
81311;DHT22;70779;52.506;5.492;2024-03-02T04:03:48;9.70;66.30
81311;DHT22;70779;52.506;5.492;2024-03-02T04:06:14;9.70;66.20
81311;DHT22;70779;52.506;5.492;2024-03-02T04:08:42;9.70;66.10
81311;DHT22;70779;52.506;5.492;2024-03-02T04:11:08;9.60;66.00
81311;DHT22;70779;52.506;5.492;2024-03-02T04:13:34;9.50;65.90
81311;DHT22;70779;52.506;5.492;2024-03-02T04:16:00;9.40;66.00
81311;DHT22;70779;52.506;5.492;2024-03-02T04:18:26;9.40;66.00
81311;DHT22;70779;52.506;5.492;2024-03-02T04:20:52;9.30;66.10
81311;DHT22;70779;52.506;5.492;2024-03-02T04:23:19;9.20;66.10
81311;DHT22;70779;52.506;5.492;2024-03-02T04:25:45;9.20;66.30
81311;DHT22;70779;52.506;5.492;2024-03-02T04:28:11;9.10;66.30
81311;DHT22;70779;52.506;5.492;2024-03-02T04:30:38;9.10;66.20
81311;DHT22;70779;52.506;5.492;2024-03-02T04:33:04;9.00;66.20
81311;DHT22;70779;52.506;5.492;2024-03-02T04:35:31;9.00;66.40
81311;DHT22;70779;52.506;5.492;2024-03-02T04:37:57;8.90;66.50
81311;DHT22;70779;52.506;5.492;2024-03-02T04:40:23;8.90;66.60
81311;DHT22;70779;52.506;5.492;2024-03-02T04:42:50;8.90;66.80
81311;DHT22;70779;52.506;5.492;2024-03-02T04:45:16;8.90;66.90
81311;DHT22;70779;52.506;5.492;2024-03-02T04:47:42;8.90;67.00
81311;DHT22;70779;52.506;5.492;2024-03-02T04:50:08;9.00;66.90
81311;DHT22;70779;52.506;5.492;2024-03-02T04:52:34;9.20;66.70
81311;DHT22;70779;52.506;5.492;2024-03-02T04:55:00;9.20;66.50
81311;DHT22;70779;52.506;5.492;2024-03-02T04:57:43;9.30;66.50
81311;DHT22;70779;52.506;5.492;2024-03-02T05:00:10;9.40;66.40
81311;DHT22;70779;52.506;5.492;2024-03-02T05:02:36;9.40;66.20
81311;DHT22;70779;52.506;5.492;2024-03-02T05:05:02;9.40;66.00
81311;DHT22;70779;52.506;5.492;2024-03-02T05:07:28;9.40;65.90
81311;DHT22;70779;52.506;5.492;2024-03-02T05:09:55;9.30;65.80
81311;DHT22;70779;52.506;5.492;2024-03-02T05:12:21;9.20;65.90
81311;DHT22;70779;52.506;5.492;2024-03-02T05:15:06;9.20;66.10
81311;DHT22;70779;52.506;5.492;2024-03-02T05:17:33;9.00;66.30
81311;DHT22;70779;52.506;5.492;2024-03-02T05:19:59;9.00;66.40
81311;DHT22;70779;52.506;5.492;2024-03-02T05:22:25;8.90;66.50
81311;DHT22;70779;52.506;5.492;2024-03-02T05:24:51;8.90;66.70
81311;DHT22;70779;52.506;5.492;2024-03-02T05:27:17;8.90;66.80
81311;DHT22;70779;52.506;5.492;2024-03-02T05:29:43;8.80;66.80
81311;DHT22;70779;52.506;5.492;2024-03-02T05:32:09;8.80;67.00
81311;DHT22;70779;52.506;5.492;2024-03-02T05:34:35;8.70;67.10
81311;DHT22;70779;52.506;5.492;2024-03-02T05:37:02;8.70;67.20
81311;DHT22;70779;52.506;5.492;2024-03-02T05:39:28;8.60;67.40
81311;DHT22;70779;52.506;5.492;2024-03-02T05:41:54;8.60;67.40
81311;DHT22;70779;52.506;5.492;2024-03-02T05:44:20;8.60;67.30
81311;DHT22;70779;52.506;5.492;2024-03-02T05:46:46;8.60;67.20
81311;DHT22;70779;52.506;5.492;2024-03-02T05:49:12;8.50;67.20
81311;DHT22;70779;52.506;5.492;2024-03-02T05:51:38;8.50;67.00
81311;DHT22;70779;52.506;5.492;2024-03-02T05:54:04;8.40;66.90
81311;DHT22;70779;52.506;5.492;2024-03-02T05:56:31;8.40;66.80
81311;DHT22;70779;52.506;5.492;2024-03-02T05:58:57;8.40;66.70
81311;DHT22;70779;52.506;5.492;2024-03-02T06:01:46;8.40;66.70
81311;DHT22;70779;52.506;5.492;2024-03-02T06:04:18;8.30;66.60
81311;DHT22;70779;52.506;5.492;2024-03-02T06:06:44;8.30;66.60
81311;DHT22;70779;52.506;5.492;2024-03-02T06:09:10;8.30;66.50
81311;DHT22;70779;52.506;5.492;2024-03-02T06:11:39;8.20;66.50
81311;DHT22;70779;52.506;5.492;2024-03-02T06:14:07;8.20;66.50
81311;DHT22;70779;52.506;5.492;2024-03-02T06:16:34;8.20;66.40
81311;DHT22;70779;52.506;5.492;2024-03-02T06:19:01;8.20;66.30
81311;DHT22;70779;52.506;5.492;2024-03-02T06:21:28;8.20;66.30
81311;DHT22;70779;52.506;5.492;2024-03-02T06:23:54;8.20;66.10
81311;DHT22;70779;52.506;5.492;2024-03-02T06:26:20;8.20;66.00
81311;DHT22;70779;52.506;5.492;2024-03-02T06:28:46;8.10;66.00
81311;DHT22;70779;52.506;5.492;2024-03-02T06:31:12;8.20;65.90
81311;DHT22;70779;52.506;5.492;2024-03-02T06:33:39;8.10;65.90
81311;DHT22;70779;52.506;5.492;2024-03-02T06:36:06;8.10;65.80
81311;DHT22;70779;52.506;5.492;2024-03-02T06:38:35;8.10;65.90
81311;DHT22;70779;52.506;5.492;2024-03-02T06:41:01;8.10;65.80
81311;DHT22;70779;52.506;5.492;2024-03-02T06:43:27;8.10;65.80
81311;DHT22;70779;52.506;5.492;2024-03-02T06:45:53;8.10;65.80
81311;DHT22;70779;52.506;5.492;2024-03-02T06:48:19;8.10;65.80
81311;DHT22;70779;52.506;5.492;2024-03-02T06:50:49;8.10;65.80
81311;DHT22;70779;52.506;5.492;2024-03-02T06:53:16;8.20;65.80
81311;DHT22;70779;52.506;5.492;2024-03-02T06:55:46;8.30;65.80
81311;DHT22;70779;52.506;5.492;2024-03-02T06:58:13;8.40;65.70
81311;DHT22;70779;52.506;5.492;2024-03-02T07:00:41;8.50;65.60
81311;DHT22;70779;52.506;5.492;2024-03-02T07:03:08;8.60;65.40
81311;DHT22;70779;52.506;5.492;2024-03-02T07:05:34;8.80;65.10
81311;DHT22;70779;52.506;5.492;2024-03-02T07:08:00;8.90;64.70
81311;DHT22;70779;52.506;5.492;2024-03-02T07:10:27;9.00;64.50
81311;DHT22;70779;52.506;5.492;2024-03-02T07:12:53;9.10;64.20
81311;DHT22;70779;52.506;5.492;2024-03-02T07:15:19;9.20;64.00
81311;DHT22;70779;52.506;5.492;2024-03-02T07:18:09;9.40;63.80
81311;DHT22;70779;52.506;5.492;2024-03-02T07:20:35;9.40;63.70
81311;DHT22;70779;52.506;5.492;2024-03-02T07:23:01;9.50;63.70
81311;DHT22;70779;52.506;5.492;2024-03-02T07:25:27;9.50;63.60
81311;DHT22;70779;52.506;5.492;2024-03-02T07:27:53;9.70;63.40
81311;DHT22;70779;52.506;5.492;2024-03-02T07:30:20;9.70;62.90
81311;DHT22;70779;52.506;5.492;2024-03-02T07:32:46;9.60;62.80
81311;DHT22;70779;52.506;5.492;2024-03-02T07:35:12;9.60;62.70
81311;DHT22;70779;52.506;5.492;2024-03-02T07:37:40;9.50;62.80
81311;DHT22;70779;52.506;5.492;2024-03-02T07:40:07;9.50;63.10
81311;DHT22;70779;52.506;5.492;2024-03-02T07:42:38;9.80;63.80
81311;DHT22;70779;52.506;5.492;2024-03-02T07:45:05;10.50;63.00
81311;DHT22;70779;52.506;5.492;2024-03-02T07:47:35;11.60;60.80
81311;DHT22;70779;52.506;5.492;2024-03-02T07:50:01;12.60;59.10
81311;DHT22;70779;52.506;5.492;2024-03-02T07:52:28;13.60;57.20
81311;DHT22;70779;52.506;5.492;2024-03-02T07:54:54;14.60;56.00
81311;DHT22;70779;52.506;5.492;2024-03-02T07:57:20;15.50;54.00
81311;DHT22;70779;52.506;5.492;2024-03-02T07:59:46;16.30;53.30
81311;DHT22;70779;52.506;5.492;2024-03-02T08:02:13;17.00;51.10
81311;DHT22;70779;52.506;5.492;2024-03-02T08:04:39;17.60;50.20
81311;DHT22;70779;52.506;5.492;2024-03-02T08:07:06;18.20;49.60
81311;DHT22;70779;52.506;5.492;2024-03-02T08:09:32;18.80;49.10
81311;DHT22;70779;52.506;5.492;2024-03-02T08:11:58;19.50;48.70
81311;DHT22;70779;52.506;5.492;2024-03-02T08:14:24;20.00;46.20
81311;DHT22;70779;52.506;5.492;2024-03-02T08:16:50;20.00;46.00
81311;DHT22;70779;52.506;5.492;2024-03-02T08:19:16;19.90;45.60
81311;DHT22;70779;52.506;5.492;2024-03-02T08:21:43;19.60;45.90
81311;DHT22;70779;52.506;5.492;2024-03-02T08:24:09;19.50;46.20
81311;DHT22;70779;52.506;5.492;2024-03-02T08:26:35;19.50;46.00
81311;DHT22;70779;52.506;5.492;2024-03-02T08:29:02;19.40;45.70
81311;DHT22;70779;52.506;5.492;2024-03-02T08:31:30;19.20;45.90
81311;DHT22;70779;52.506;5.492;2024-03-02T08:33:56;19.00;46.30
81311;DHT22;70779;52.506;5.492;2024-03-02T08:36:23;19.10;46.50
81311;DHT22;70779;52.506;5.492;2024-03-02T08:38:50;19.50;45.90
81311;DHT22;70779;52.506;5.492;2024-03-02T08:41:16;19.60;45.50
81311;DHT22;70779;52.506;5.492;2024-03-02T08:43:42;19.60;45.30
81311;DHT22;70779;52.506;5.492;2024-03-02T08:46:09;19.50;45.20
81311;DHT22;70779;52.506;5.492;2024-03-02T08:48:35;19.30;45.50
81311;DHT22;70779;52.506;5.492;2024-03-02T08:51:01;19.10;46.20
81311;DHT22;70779;52.506;5.492;2024-03-02T08:53:30;19.10;45.90
81311;DHT22;70779;52.506;5.492;2024-03-02T08:55:56;19.40;45.40
81311;DHT22;70779;52.506;5.492;2024-03-02T08:58:22;19.90;45.30
81311;DHT22;70779;52.506;5.492;2024-03-02T09:00:48;20.50;44.80
81311;DHT22;70779;52.506;5.492;2024-03-02T09:03:14;21.00;44.30
81311;DHT22;70779;52.506;5.492;2024-03-02T09:05:42;21.70;43.70
81311;DHT22;70779;52.506;5.492;2024-03-02T09:08:08;22.40;42.40
81311;DHT22;70779;52.506;5.492;2024-03-02T09:10:34;22.80;41.70
81311;DHT22;70779;52.506;5.492;2024-03-02T09:13:01;23.00;40.80
81311;DHT22;70779;52.506;5.492;2024-03-02T09:15:27;23.00;40.90
81311;DHT22;70779;52.506;5.492;2024-03-02T09:17:53;23.20;40.30
81311;DHT22;70779;52.506;5.492;2024-03-02T09:20:19;23.40;39.90
81311;DHT22;70779;52.506;5.492;2024-03-02T09:22:46;23.50;40.10
81311;DHT22;70779;52.506;5.492;2024-03-02T09:25:13;23.80;39.50
81311;DHT22;70779;52.506;5.492;2024-03-02T09:27:39;23.80;39.30
81311;DHT22;70779;52.506;5.492;2024-03-02T09:30:08;24.00;39.50
81311;DHT22;70779;52.506;5.492;2024-03-02T09:32:34;24.30;39.30
81311;DHT22;70779;52.506;5.492;2024-03-02T09:35:00;24.50;38.40
81311;DHT22;70779;52.506;5.492;2024-03-02T09:37:26;24.50;38.50
81311;DHT22;70779;52.506;5.492;2024-03-02T09:39:54;24.60;38.40
81311;DHT22;70779;52.506;5.492;2024-03-02T09:42:21;24.70;38.00
81311;DHT22;70779;52.506;5.492;2024-03-02T09:44:48;25.00;37.50
81311;DHT22;70779;52.506;5.492;2024-03-02T09:47:14;25.10;37.50
81311;DHT22;70779;52.506;5.492;2024-03-02T09:49:40;25.40;37.80
81311;DHT22;70779;52.506;5.492;2024-03-02T09:52:07;25.70;37.30
81311;DHT22;70779;52.506;5.492;2024-03-02T09:54:33;26.00;37.50
81311;DHT22;70779;52.506;5.492;2024-03-02T09:56:59;26.30;37.00
81311;DHT22;70779;52.506;5.492;2024-03-02T09:59:28;26.40;36.50
81311;DHT22;70779;52.506;5.492;2024-03-02T10:01:59;26.40;36.60
81311;DHT22;70779;52.506;5.492;2024-03-02T10:04:26;26.30;36.60
81311;DHT22;70779;52.506;5.492;2024-03-02T10:07:16;26.10;36.80
81311;DHT22;70779;52.506;5.492;2024-03-02T10:09:46;26.00;36.70
81311;DHT22;70779;52.506;5.492;2024-03-02T10:12:14;25.80;36.60
81311;DHT22;70779;52.506;5.492;2024-03-02T10:14:40;25.60;37.00
81311;DHT22;70779;52.506;5.492;2024-03-02T10:17:08;25.60;37.00
81311;DHT22;70779;52.506;5.492;2024-03-02T10:19:35;25.60;37.00
81311;DHT22;70779;52.506;5.492;2024-03-02T10:22:04;25.50;37.00
81311;DHT22;70779;52.506;5.492;2024-03-02T10:24:36;25.50;36.80
81311;DHT22;70779;52.506;5.492;2024-03-02T10:27:10;25.40;36.40
81311;DHT22;70779;52.506;5.492;2024-03-02T10:29:39;25.00;36.10
81311;DHT22;70779;52.506;5.492;2024-03-02T10:32:09;24.30;36.30
81311;DHT22;70779;52.506;5.492;2024-03-02T10:34:39;23.60;37.00
81311;DHT22;70779;52.506;5.492;2024-03-02T10:37:05;23.40;37.50
81311;DHT22;70779;52.506;5.492;2024-03-02T10:39:34;23.30;37.50
81311;DHT22;70779;52.506;5.492;2024-03-02T10:42:02;23.30;37.10
81311;DHT22;70779;52.506;5.492;2024-03-02T10:44:30;23.10;37.10
81311;DHT22;70779;52.506;5.492;2024-03-02T10:47:02;22.70;37.30
81311;DHT22;70779;52.506;5.492;2024-03-02T10:49:31;22.10;37.50
81311;DHT22;70779;52.506;5.492;2024-03-02T10:52:00;21.10;38.10
81311;DHT22;70779;52.506;5.492;2024-03-02T10:54:27;20.10;39.00
81311;DHT22;70779;52.506;5.492;2024-03-02T10:56:59;19.10;40.40
81311;DHT22;70779;52.506;5.492;2024-03-02T10:59:35;18.20;41.40
81311;DHT22;70779;52.506;5.492;2024-03-02T11:02:03;17.50;42.30
81311;DHT22;70779;52.506;5.492;2024-03-02T11:04:31;17.00;43.10
81311;DHT22;70779;52.506;5.492;2024-03-02T11:07:06;16.70;43.50
81311;DHT22;70779;52.506;5.492;2024-03-02T11:09:40;16.40;43.70
81311;DHT22;70779;52.506;5.492;2024-03-02T11:12:15;16.10;44.70
81311;DHT22;70779;52.506;5.492;2024-03-02T11:14:44;15.90;44.90
81311;DHT22;70779;52.506;5.492;2024-03-02T11:17:13;15.80;44.70
81311;DHT22;70779;52.506;5.492;2024-03-02T11:19:41;15.60;45.00
81311;DHT22;70779;52.506;5.492;2024-03-02T11:22:08;15.50;45.20
81311;DHT22;70779;52.506;5.492;2024-03-02T11:24:35;15.40;45.50
81311;DHT22;70779;52.506;5.492;2024-03-02T11:27:07;15.30;45.60
81311;DHT22;70779;52.506;5.492;2024-03-02T11:32:15;15.20;45.40
81311;DHT22;70779;52.506;5.492;2024-03-02T11:34:43;15.10;45.50
81311;DHT22;70779;52.506;5.492;2024-03-02T11:37:11;15.00;45.70
81311;DHT22;70779;52.506;5.492;2024-03-02T11:39:39;15.00;46.20
81311;DHT22;70779;52.506;5.492;2024-03-02T11:42:08;15.00;46.70
81311;DHT22;70779;52.506;5.492;2024-03-02T11:44:47;14.90;47.20
81311;DHT22;70779;52.506;5.492;2024-03-02T11:47:17;14.80;47.80
81311;DHT22;70779;52.506;5.492;2024-03-02T11:49:45;14.80;48.00
81311;DHT22;70779;52.506;5.492;2024-03-02T11:52:13;14.70;48.20
81311;DHT22;70779;52.506;5.492;2024-03-02T11:54:42;14.70;48.00
81311;DHT22;70779;52.506;5.492;2024-03-02T11:57:23;14.70;48.00
81311;DHT22;70779;52.506;5.492;2024-03-02T11:59:49;14.70;48.10
81311;DHT22;70779;52.506;5.492;2024-03-02T12:02:21;14.60;47.70
81311;DHT22;70779;52.506;5.492;2024-03-02T12:04:49;14.60;47.70
81311;DHT22;70779;52.506;5.492;2024-03-02T12:07:19;14.50;48.20
81311;DHT22;70779;52.506;5.492;2024-03-02T12:10:10;14.60;48.40
81311;DHT22;70779;52.506;5.492;2024-03-02T12:12:36;14.50;48.70
81311;DHT22;70779;52.506;5.492;2024-03-02T12:15:02;14.50;48.60
81311;DHT22;70779;52.506;5.492;2024-03-02T12:17:29;14.50;48.40
81311;DHT22;70779;52.506;5.492;2024-03-02T12:19:55;14.60;48.10
81311;DHT22;70779;52.506;5.492;2024-03-02T12:22:22;14.60;47.80
81311;DHT22;70779;52.506;5.492;2024-03-02T12:24:48;14.60;47.40
81311;DHT22;70779;52.506;5.492;2024-03-02T12:27:17;14.60;47.50
81311;DHT22;70779;52.506;5.492;2024-03-02T12:29:48;14.60;47.20
81311;DHT22;70779;52.506;5.492;2024-03-02T12:32:14;14.60;47.10
81311;DHT22;70779;52.506;5.492;2024-03-02T12:34:40;14.70;46.70
81311;DHT22;70779;52.506;5.492;2024-03-02T12:37:06;14.70;47.00
81311;DHT22;70779;52.506;5.492;2024-03-02T12:39:32;14.70;47.00
81311;DHT22;70779;52.506;5.492;2024-03-02T12:41:59;14.80;46.70
81311;DHT22;70779;52.506;5.492;2024-03-02T12:44:25;14.90;46.60
81311;DHT22;70779;52.506;5.492;2024-03-02T12:46:51;15.00;46.40
81311;DHT22;70779;52.506;5.492;2024-03-02T12:49:22;15.00;46.50
81311;DHT22;70779;52.506;5.492;2024-03-02T12:51:49;15.20;45.70
81311;DHT22;70779;52.506;5.492;2024-03-02T12:54:18;15.30;45.80
81311;DHT22;70779;52.506;5.492;2024-03-02T12:56:44;15.30;45.50
81311;DHT22;70779;52.506;5.492;2024-03-02T12:59:19;15.40;45.60
81311;DHT22;70779;52.506;5.492;2024-03-02T13:01:53;15.40;45.90
81311;DHT22;70779;52.506;5.492;2024-03-02T13:04:26;15.40;45.20
81311;DHT22;70779;52.506;5.492;2024-03-02T13:06:53;15.50;45.30
81311;DHT22;70779;52.506;5.492;2024-03-02T13:09:19;15.50;45.40
81311;DHT22;70779;52.506;5.492;2024-03-02T13:11:45;15.50;45.60
81311;DHT22;70779;52.506;5.492;2024-03-02T13:14:11;15.50;45.90
81311;DHT22;70779;52.506;5.492;2024-03-02T13:16:41;15.60;45.80
81311;DHT22;70779;52.506;5.492;2024-03-02T13:19:11;15.60;45.80
81311;DHT22;70779;52.506;5.492;2024-03-02T13:21:38;15.70;45.20
81311;DHT22;70779;52.506;5.492;2024-03-02T13:24:05;15.60;43.50
81311;DHT22;70779;52.506;5.492;2024-03-02T13:26:31;15.70;43.00
81311;DHT22;70779;52.506;5.492;2024-03-02T13:28:57;15.60;43.40
81311;DHT22;70779;52.506;5.492;2024-03-02T13:31:23;15.60;43.60
81311;DHT22;70779;52.506;5.492;2024-03-02T13:33:50;15.60;43.50
81311;DHT22;70779;52.506;5.492;2024-03-02T13:36:16;15.60;43.60
81311;DHT22;70779;52.506;5.492;2024-03-02T13:38:43;15.50;43.30
81311;DHT22;70779;52.506;5.492;2024-03-02T13:41:09;15.50;43.50
81311;DHT22;70779;52.506;5.492;2024-03-02T13:43:37;15.50;44.00
81311;DHT22;70779;52.506;5.492;2024-03-02T13:46:04;15.40;44.50
81311;DHT22;70779;52.506;5.492;2024-03-02T13:48:30;15.40;45.10
81311;DHT22;70779;52.506;5.492;2024-03-02T13:50:57;15.40;45.30
81311;DHT22;70779;52.506;5.492;2024-03-02T13:53:23;15.40;45.50
81311;DHT22;70779;52.506;5.492;2024-03-02T13:55:49;15.40;45.50
81311;DHT22;70779;52.506;5.492;2024-03-02T13:58:15;15.30;45.50
81311;DHT22;70779;52.506;5.492;2024-03-02T14:00:42;15.30;45.40
81311;DHT22;70779;52.506;5.492;2024-03-02T14:03:09;15.30;45.20
81311;DHT22;70779;52.506;5.492;2024-03-02T14:05:35;15.30;45.50
81311;DHT22;70779;52.506;5.492;2024-03-02T14:08:02;15.20;45.40
81311;DHT22;70779;52.506;5.492;2024-03-02T14:10:30;15.20;45.70
81311;DHT22;70779;52.506;5.492;2024-03-02T14:12:56;15.20;45.80
81311;DHT22;70779;52.506;5.492;2024-03-02T14:15:22;15.20;45.80
81311;DHT22;70779;52.506;5.492;2024-03-02T14:17:49;15.20;45.70
81311;DHT22;70779;52.506;5.492;2024-03-02T14:20:16;15.20;45.90
81311;DHT22;70779;52.506;5.492;2024-03-02T14:22:48;15.20;45.80
81311;DHT22;70779;52.506;5.492;2024-03-02T14:25:14;15.20;45.50
81311;DHT22;70779;52.506;5.492;2024-03-02T14:27:40;15.20;45.30
81311;DHT22;70779;52.506;5.492;2024-03-02T14:30:07;15.20;45.50
81311;DHT22;70779;52.506;5.492;2024-03-02T14:32:33;15.20;45.60
81311;DHT22;70779;52.506;5.492;2024-03-02T14:34:59;15.20;45.90
81311;DHT22;70779;52.506;5.492;2024-03-02T14:37:25;15.20;45.80
81311;DHT22;70779;52.506;5.492;2024-03-02T14:39:51;15.20;46.00
81311;DHT22;70779;52.506;5.492;2024-03-02T14:42:18;15.20;45.70
81311;DHT22;70779;52.506;5.492;2024-03-02T14:44:44;15.10;45.70
81311;DHT22;70779;52.506;5.492;2024-03-02T14:47:10;15.00;45.70
81311;DHT22;70779;52.506;5.492;2024-03-02T14:49:36;15.10;45.80
81311;DHT22;70779;52.506;5.492;2024-03-02T14:52:06;15.10;46.80
81311;DHT22;70779;52.506;5.492;2024-03-02T14:54:33;15.20;47.90
81311;DHT22;70779;52.506;5.492;2024-03-02T14:57:01;15.20;48.50
81311;DHT22;70779;52.506;5.492;2024-03-02T14:59:28;15.20;48.90
81311;DHT22;70779;52.506;5.492;2024-03-02T15:01:54;15.20;49.00
81311;DHT22;70779;52.506;5.492;2024-03-02T15:04:20;15.20;49.00
81311;DHT22;70779;52.506;5.492;2024-03-02T15:06:46;15.10;49.50
81311;DHT22;70779;52.506;5.492;2024-03-02T15:09:13;15.10;49.90
81311;DHT22;70779;52.506;5.492;2024-03-02T15:11:39;15.10;49.70
81311;DHT22;70779;52.506;5.492;2024-03-02T15:14:05;15.20;49.70
81311;DHT22;70779;52.506;5.492;2024-03-02T15:16:31;15.10;49.70
81311;DHT22;70779;52.506;5.492;2024-03-02T15:18:57;15.20;49.90
81311;DHT22;70779;52.506;5.492;2024-03-02T15:21:23;15.20;49.80
81311;DHT22;70779;52.506;5.492;2024-03-02T15:23:50;15.20;49.40
81311;DHT22;70779;52.506;5.492;2024-03-02T15:26:16;15.20;49.40
81311;DHT22;70779;52.506;5.492;2024-03-02T15:28:42;15.20;49.10
81311;DHT22;70779;52.506;5.492;2024-03-02T15:31:08;15.20;49.40
81311;DHT22;70779;52.506;5.492;2024-03-02T15:33:34;15.10;49.70
81311;DHT22;70779;52.506;5.492;2024-03-02T15:36:01;15.00;49.90
81311;DHT22;70779;52.506;5.492;2024-03-02T15:38:27;15.00;50.00
81311;DHT22;70779;52.506;5.492;2024-03-02T15:40:53;15.00;49.60
81311;DHT22;70779;52.506;5.492;2024-03-02T15:43:19;15.00;49.90